sensor_id;sensor_type;location;lat;lon;timestamp;P1;durP1;ratioP1;P2;durP2;ratioP2
14698;SDS011;7439;50.804;4.602;2023-02-16T00:01:15;70.97;;;47.47;;
14698;SDS011;7439;50.804;4.602;2023-02-16T00:03:43;74.90;;;49.97;;
14698;SDS011;7439;50.804;4.602;2023-02-16T00:06:11;72.13;;;49.57;;
14698;SDS011;7439;50.804;4.602;2023-02-16T00:08:40;72.77;;;49.43;;
14698;SDS011;7439;50.804;4.602;2023-02-16T00:11:12;65.97;;;49.87;;
14698;SDS011;7439;50.804;4.602;2023-02-16T00:13:59;72.53;;;47.33;;
14698;SDS011;7439;50.804;4.602;2023-02-16T00:16:27;67.00;;;46.10;;
14698;SDS011;7439;50.804;4.602;2023-02-16T00:18:54;71.77;;;47.20;;
14698;SDS011;7439;50.804;4.602;2023-02-16T00:21:22;67.47;;;45.40;;
14698;SDS011;7439;50.804;4.602;2023-02-16T00:23:49;69.07;;;45.43;;
14698;SDS011;7439;50.804;4.602;2023-02-16T00:26:19;72.03;;;45.53;;
14698;SDS011;7439;50.804;4.602;2023-02-16T00:28:48;74.30;;;48.80;;
14698;SDS011;7439;50.804;4.602;2023-02-16T00:31:16;76.53;;;49.80;;
14698;SDS011;7439;50.804;4.602;2023-02-16T00:33:44;72.77;;;46.67;;
14698;SDS011;7439;50.804;4.602;2023-02-16T00:36:11;70.20;;;47.07;;
14698;SDS011;7439;50.804;4.602;2023-02-16T00:38:39;70.80;;;45.77;;
14698;SDS011;7439;50.804;4.602;2023-02-16T00:41:08;67.97;;;44.03;;
14698;SDS011;7439;50.804;4.602;2023-02-16T00:44:03;65.60;;;44.00;;
14698;SDS011;7439;50.804;4.602;2023-02-16T00:46:30;69.27;;;47.07;;
14698;SDS011;7439;50.804;4.602;2023-02-16T00:48:58;76.33;;;47.03;;
14698;SDS011;7439;50.804;4.602;2023-02-16T00:51:25;66.50;;;44.30;;
14698;SDS011;7439;50.804;4.602;2023-02-16T00:53:53;74.10;;;46.90;;
14698;SDS011;7439;50.804;4.602;2023-02-16T00:56:20;69.37;;;46.27;;
14698;SDS011;7439;50.804;4.602;2023-02-16T00:58:50;77.27;;;48.40;;
14698;SDS011;7439;50.804;4.602;2023-02-16T01:01:20;81.40;;;51.87;;
14698;SDS011;7439;50.804;4.602;2023-02-16T01:03:50;82.57;;;51.57;;
14698;SDS011;7439;50.804;4.602;2023-02-16T01:06:17;81.80;;;49.27;;
14698;SDS011;7439;50.804;4.602;2023-02-16T01:09:09;78.70;;;50.23;;
14698;SDS011;7439;50.804;4.602;2023-02-16T01:11:55;73.97;;;47.23;;
14698;SDS011;7439;50.804;4.602;2023-02-16T01:14:26;79.63;;;49.97;;
14698;SDS011;7439;50.804;4.602;2023-02-16T01:16:54;77.17;;;49.60;;
14698;SDS011;7439;50.804;4.602;2023-02-16T01:19:22;86.33;;;49.27;;
14698;SDS011;7439;50.804;4.602;2023-02-16T01:21:49;80.40;;;50.57;;
14698;SDS011;7439;50.804;4.602;2023-02-16T01:24:17;83.97;;;50.80;;
14698;SDS011;7439;50.804;4.602;2023-02-16T01:26:45;90.80;;;53.83;;
14698;SDS011;7439;50.804;4.602;2023-02-16T01:29:13;90.30;;;52.83;;
14698;SDS011;7439;50.804;4.602;2023-02-16T01:31:41;84.57;;;52.30;;
14698;SDS011;7439;50.804;4.602;2023-02-16T01:34:11;81.10;;;49.97;;
14698;SDS011;7439;50.804;4.602;2023-02-16T01:36:39;84.43;;;53.77;;
14698;SDS011;7439;50.804;4.602;2023-02-16T01:39:08;81.43;;;48.53;;
14698;SDS011;7439;50.804;4.602;2023-02-16T01:41:43;83.40;;;50.67;;
14698;SDS011;7439;50.804;4.602;2023-02-16T01:44:13;83.40;;;50.57;;
14698;SDS011;7439;50.804;4.602;2023-02-16T01:46:42;86.40;;;52.77;;
14698;SDS011;7439;50.804;4.602;2023-02-16T01:49:12;84.73;;;53.33;;
14698;SDS011;7439;50.804;4.602;2023-02-16T01:51:45;84.50;;;50.90;;
14698;SDS011;7439;50.804;4.602;2023-02-16T01:54:15;85.30;;;50.33;;
14698;SDS011;7439;50.804;4.602;2023-02-16T01:56:46;91.57;;;55.33;;
14698;SDS011;7439;50.804;4.602;2023-02-16T01:59:15;84.10;;;51.40;;
14698;SDS011;7439;50.804;4.602;2023-02-16T02:01:48;84.23;;;52.27;;
14698;SDS011;7439;50.804;4.602;2023-02-16T02:04:23;78.70;;;49.77;;
14698;SDS011;7439;50.804;4.602;2023-02-16T02:07:10;84.37;;;49.70;;
14698;SDS011;7439;50.804;4.602;2023-02-16T02:09:39;81.57;;;50.57;;
14698;SDS011;7439;50.804;4.602;2023-02-16T02:12:12;93.93;;;52.53;;
14698;SDS011;7439;50.804;4.602;2023-02-16T02:14:41;89.23;;;50.93;;
14698;SDS011;7439;50.804;4.602;2023-02-16T02:17:10;85.20;;;51.33;;
14698;SDS011;7439;50.804;4.602;2023-02-16T02:19:42;98.20;;;53.07;;
14698;SDS011;7439;50.804;4.602;2023-02-16T02:22:16;96.53;;;56.27;;
14698;SDS011;7439;50.804;4.602;2023-02-16T02:25:12;86.43;;;53.20;;
14698;SDS011;7439;50.804;4.602;2023-02-16T02:27:49;97.27;;;53.67;;
14698;SDS011;7439;50.804;4.602;2023-02-16T02:30:24;92.43;;;54.13;;
14698;SDS011;7439;50.804;4.602;2023-02-16T02:33:09;95.80;;;54.97;;
14698;SDS011;7439;50.804;4.602;2023-02-16T02:35:43;103.00;;;58.07;;
14698;SDS011;7439;50.804;4.602;2023-02-16T02:38:15;107.37;;;57.93;;
14698;SDS011;7439;50.804;4.602;2023-02-16T02:40:52;90.23;;;55.40;;
14698;SDS011;7439;50.804;4.602;2023-02-16T02:43:21;95.30;;;58.37;;
14698;SDS011;7439;50.804;4.602;2023-02-16T02:45:49;96.10;;;56.83;;
14698;SDS011;7439;50.804;4.602;2023-02-16T02:48:19;105.70;;;58.30;;
14698;SDS011;7439;50.804;4.602;2023-02-16T02:50:47;102.50;;;59.37;;
14698;SDS011;7439;50.804;4.602;2023-02-16T02:53:29;109.90;;;61.40;;
14698;SDS011;7439;50.804;4.602;2023-02-16T02:55:58;102.50;;;61.23;;
14698;SDS011;7439;50.804;4.602;2023-02-16T02:58:44;96.83;;;60.23;;
14698;SDS011;7439;50.804;4.602;2023-02-16T03:01:30;97.63;;;58.57;;
14698;SDS011;7439;50.804;4.602;2023-02-16T03:03:59;95.63;;;58.57;;
14698;SDS011;7439;50.804;4.602;2023-02-16T03:06:28;100.73;;;61.17;;
14698;SDS011;7439;50.804;4.602;2023-02-16T03:09:01;100.37;;;59.43;;
14698;SDS011;7439;50.804;4.602;2023-02-16T03:11:30;106.57;;;61.87;;
14698;SDS011;7439;50.804;4.602;2023-02-16T03:14:17;99.50;;;57.23;;
14698;SDS011;7439;50.804;4.602;2023-02-16T03:16:46;99.43;;;58.33;;
14698;SDS011;7439;50.804;4.602;2023-02-16T03:19:14;96.97;;;59.47;;
14698;SDS011;7439;50.804;4.602;2023-02-16T03:22:00;97.87;;;59.30;;
14698;SDS011;7439;50.804;4.602;2023-02-16T03:24:46;91.77;;;56.73;;
14698;SDS011;7439;50.804;4.602;2023-02-16T03:27:32;88.83;;;55.17;;
14698;SDS011;7439;50.804;4.602;2023-02-16T03:30:19;87.63;;;53.53;;
14698;SDS011;7439;50.804;4.602;2023-02-16T03:32:48;91.23;;;55.20;;
14698;SDS011;7439;50.804;4.602;2023-02-16T03:35:15;93.63;;;53.47;;
14698;SDS011;7439;50.804;4.602;2023-02-16T03:37:42;82.67;;;53.43;;
14698;SDS011;7439;50.804;4.602;2023-02-16T03:40:12;85.73;;;54.47;;
14698;SDS011;7439;50.804;4.602;2023-02-16T03:42:57;90.70;;;53.30;;
14698;SDS011;7439;50.804;4.602;2023-02-16T03:45:26;86.47;;;55.07;;
14698;SDS011;7439;50.804;4.602;2023-02-16T03:47:59;83.70;;;51.07;;
14698;SDS011;7439;50.804;4.602;2023-02-16T03:50:26;84.07;;;51.20;;
14698;SDS011;7439;50.804;4.602;2023-02-16T03:52:54;84.73;;;51.03;;
14698;SDS011;7439;50.804;4.602;2023-02-16T03:55:31;80.90;;;51.73;;
14698;SDS011;7439;50.804;4.602;2023-02-16T03:57:59;77.17;;;50.63;;
14698;SDS011;7439;50.804;4.602;2023-02-16T04:00:28;81.67;;;50.63;;
14698;SDS011;7439;50.804;4.602;2023-02-16T04:02:55;78.67;;;49.20;;
14698;SDS011;7439;50.804;4.602;2023-02-16T04:05:23;86.23;;;51.37;;
14698;SDS011;7439;50.804;4.602;2023-02-16T04:07:50;78.27;;;50.57;;
14698;SDS011;7439;50.804;4.602;2023-02-16T04:10:17;85.43;;;51.90;;
14698;SDS011;7439;50.804;4.602;2023-02-16T04:12:45;82.60;;;50.07;;
14698;SDS011;7439;50.804;4.602;2023-02-16T04:15:13;81.27;;;49.73;;
14698;SDS011;7439;50.804;4.602;2023-02-16T04:17:42;79.10;;;49.40;;
14698;SDS011;7439;50.804;4.602;2023-02-16T04:20:10;81.93;;;50.83;;
14698;SDS011;7439;50.804;4.602;2023-02-16T04:22:38;79.40;;;49.37;;
14698;SDS011;7439;50.804;4.602;2023-02-16T04:25:05;77.37;;;49.07;;
14698;SDS011;7439;50.804;4.602;2023-02-16T04:27:34;81.57;;;49.77;;
14698;SDS011;7439;50.804;4.602;2023-02-16T04:30:01;73.03;;;46.80;;
14698;SDS011;7439;50.804;4.602;2023-02-16T04:32:28;85.40;;;51.07;;
14698;SDS011;7439;50.804;4.602;2023-02-16T04:34:58;78.37;;;48.73;;
14698;SDS011;7439;50.804;4.602;2023-02-16T04:37:25;75.33;;;50.13;;
14698;SDS011;7439;50.804;4.602;2023-02-16T04:39:52;75.83;;;50.20;;
14698;SDS011;7439;50.804;4.602;2023-02-16T04:42:20;83.73;;;50.63;;
14698;SDS011;7439;50.804;4.602;2023-02-16T04:44:47;80.17;;;51.00;;
14698;SDS011;7439;50.804;4.602;2023-02-16T04:47:15;84.47;;;50.90;;
14698;SDS011;7439;50.804;4.602;2023-02-16T04:49:42;84.70;;;51.97;;
14698;SDS011;7439;50.804;4.602;2023-02-16T04:52:11;90.57;;;55.53;;
14698;SDS011;7439;50.804;4.602;2023-02-16T04:54:40;75.83;;;51.77;;
14698;SDS011;7439;50.804;4.602;2023-02-16T04:57:07;90.23;;;56.30;;
14698;SDS011;7439;50.804;4.602;2023-02-16T04:59:35;85.73;;;54.87;;
14698;SDS011;7439;50.804;4.602;2023-02-16T05:02:02;89.60;;;54.77;;
14698;SDS011;7439;50.804;4.602;2023-02-16T05:04:30;79.67;;;55.07;;
14698;SDS011;7439;50.804;4.602;2023-02-16T05:07:00;86.70;;;53.23;;
14698;SDS011;7439;50.804;4.602;2023-02-16T05:09:29;81.90;;;51.03;;
14698;SDS011;7439;50.804;4.602;2023-02-16T05:11:59;84.57;;;52.67;;
14698;SDS011;7439;50.804;4.602;2023-02-16T05:14:44;76.27;;;51.00;;
14698;SDS011;7439;50.804;4.602;2023-02-16T05:17:12;73.13;;;50.43;;
14698;SDS011;7439;50.804;4.602;2023-02-16T05:19:40;75.63;;;50.37;;
14698;SDS011;7439;50.804;4.602;2023-02-16T05:22:08;73.67;;;47.80;;
14698;SDS011;7439;50.804;4.602;2023-02-16T05:24:37;73.93;;;49.10;;
14698;SDS011;7439;50.804;4.602;2023-02-16T05:27:05;66.73;;;46.73;;
14698;SDS011;7439;50.804;4.602;2023-02-16T05:29:33;77.30;;;50.10;;
14698;SDS011;7439;50.804;4.602;2023-02-16T05:32:01;68.67;;;47.63;;
14698;SDS011;7439;50.804;4.602;2023-02-16T05:34:32;71.77;;;50.27;;
14698;SDS011;7439;50.804;4.602;2023-02-16T05:36:59;73.50;;;50.27;;
14698;SDS011;7439;50.804;4.602;2023-02-16T05:39:27;75.30;;;50.63;;
14698;SDS011;7439;50.804;4.602;2023-02-16T05:41:56;70.97;;;48.97;;
14698;SDS011;7439;50.804;4.602;2023-02-16T05:44:23;70.13;;;47.40;;
14698;SDS011;7439;50.804;4.602;2023-02-16T05:46:51;67.87;;;47.40;;
14698;SDS011;7439;50.804;4.602;2023-02-16T05:49:18;72.17;;;47.60;;
14698;SDS011;7439;50.804;4.602;2023-02-16T05:51:45;68.53;;;47.43;;
14698;SDS011;7439;50.804;4.602;2023-02-16T05:54:13;71.43;;;47.30;;
14698;SDS011;7439;50.804;4.602;2023-02-16T05:56:42;61.93;;;44.40;;
14698;SDS011;7439;50.804;4.602;2023-02-16T05:59:11;66.60;;;46.60;;
14698;SDS011;7439;50.804;4.602;2023-02-16T06:01:40;63.63;;;45.23;;
14698;SDS011;7439;50.804;4.602;2023-02-16T06:04:07;66.90;;;45.63;;
14698;SDS011;7439;50.804;4.602;2023-02-16T06:06:35;74.10;;;48.13;;
14698;SDS011;7439;50.804;4.602;2023-02-16T06:09:03;62.00;;;44.80;;
14698;SDS011;7439;50.804;4.602;2023-02-16T06:11:31;66.73;;;47.07;;
14698;SDS011;7439;50.804;4.602;2023-02-16T06:14:02;68.67;;;48.43;;
14698;SDS011;7439;50.804;4.602;2023-02-16T06:16:34;67.10;;;46.23;;
14698;SDS011;7439;50.804;4.602;2023-02-16T06:19:02;82.07;;;51.87;;
14698;SDS011;7439;50.804;4.602;2023-02-16T06:21:30;81.93;;;50.40;;
14698;SDS011;7439;50.804;4.602;2023-02-16T06:23:57;85.27;;;52.87;;
14698;SDS011;7439;50.804;4.602;2023-02-16T06:26:24;74.70;;;49.70;;
14698;SDS011;7439;50.804;4.602;2023-02-16T06:28:52;89.20;;;56.10;;
14698;SDS011;7439;50.804;4.602;2023-02-16T06:31:19;76.30;;;50.20;;
14698;SDS011;7439;50.804;4.602;2023-02-16T06:33:49;63.40;;;46.13;;
14698;SDS011;7439;50.804;4.602;2023-02-16T06:36:16;73.80;;;47.30;;
14698;SDS011;7439;50.804;4.602;2023-02-16T06:38:43;68.47;;;46.93;;
14698;SDS011;7439;50.804;4.602;2023-02-16T06:41:11;54.23;;;42.27;;
14698;SDS011;7439;50.804;4.602;2023-02-16T06:43:55;58.47;;;43.17;;
14698;SDS011;7439;50.804;4.602;2023-02-16T06:46:22;65.67;;;47.57;;
14698;SDS011;7439;50.804;4.602;2023-02-16T06:48:51;59.10;;;44.37;;
14698;SDS011;7439;50.804;4.602;2023-02-16T06:51:18;58.07;;;44.57;;
14698;SDS011;7439;50.804;4.602;2023-02-16T06:53:46;63.67;;;44.67;;
14698;SDS011;7439;50.804;4.602;2023-02-16T06:56:13;57.87;;;42.73;;
14698;SDS011;7439;50.804;4.602;2023-02-16T06:58:41;63.37;;;43.70;;
14698;SDS011;7439;50.804;4.602;2023-02-16T07:01:08;56.90;;;41.07;;
14698;SDS011;7439;50.804;4.602;2023-02-16T07:03:35;58.03;;;43.43;;
14698;SDS011;7439;50.804;4.602;2023-02-16T07:06:05;56.00;;;41.57;;
14698;SDS011;7439;50.804;4.602;2023-02-16T07:08:36;57.57;;;41.23;;
14698;SDS011;7439;50.804;4.602;2023-02-16T07:11:03;55.57;;;42.17;;
14698;SDS011;7439;50.804;4.602;2023-02-16T07:13:31;52.63;;;42.83;;
14698;SDS011;7439;50.804;4.602;2023-02-16T07:16:00;55.90;;;42.73;;
14698;SDS011;7439;50.804;4.602;2023-02-16T07:18:28;57.87;;;42.07;;
14698;SDS011;7439;50.804;4.602;2023-02-16T07:20:56;57.70;;;43.90;;
14698;SDS011;7439;50.804;4.602;2023-02-16T07:23:25;54.07;;;41.43;;
14698;SDS011;7439;50.804;4.602;2023-02-16T07:25:52;55.93;;;39.23;;
14698;SDS011;7439;50.804;4.602;2023-02-16T07:28:19;53.93;;;39.87;;
14698;SDS011;7439;50.804;4.602;2023-02-16T07:30:47;53.20;;;40.57;;
14698;SDS011;7439;50.804;4.602;2023-02-16T07:33:14;54.30;;;42.77;;
14698;SDS011;7439;50.804;4.602;2023-02-16T07:35:42;53.43;;;42.33;;
14698;SDS011;7439;50.804;4.602;2023-02-16T07:38:10;52.97;;;40.80;;
14698;SDS011;7439;50.804;4.602;2023-02-16T07:40:38;51.53;;;39.57;;
14698;SDS011;7439;50.804;4.602;2023-02-16T07:43:06;51.03;;;39.87;;
14698;SDS011;7439;50.804;4.602;2023-02-16T07:45:34;47.37;;;38.87;;
14698;SDS011;7439;50.804;4.602;2023-02-16T07:48:02;51.67;;;39.43;;
14698;SDS011;7439;50.804;4.602;2023-02-16T07:50:29;51.17;;;37.87;;
14698;SDS011;7439;50.804;4.602;2023-02-16T07:52:56;48.80;;;38.47;;
14698;SDS011;7439;50.804;4.602;2023-02-16T07:55:24;50.10;;;39.33;;
14698;SDS011;7439;50.804;4.602;2023-02-16T07:57:53;51.10;;;37.93;;
14698;SDS011;7439;50.804;4.602;2023-02-16T08:00:22;43.87;;;36.77;;
14698;SDS011;7439;50.804;4.602;2023-02-16T08:02:49;46.27;;;36.37;;
14698;SDS011;7439;50.804;4.602;2023-02-16T08:05:17;46.17;;;36.47;;
14698;SDS011;7439;50.804;4.602;2023-02-16T08:07:44;46.83;;;37.67;;
14698;SDS011;7439;50.804;4.602;2023-02-16T08:10:11;54.77;;;38.23;;
14698;SDS011;7439;50.804;4.602;2023-02-16T08:12:40;44.93;;;35.63;;
14698;SDS011;7439;50.804;4.602;2023-02-16T08:15:09;44.57;;;36.77;;
14698;SDS011;7439;50.804;4.602;2023-02-16T08:17:37;42.50;;;35.23;;
14698;SDS011;7439;50.804;4.602;2023-02-16T08:20:06;47.73;;;36.87;;
14698;SDS011;7439;50.804;4.602;2023-02-16T08:22:34;43.00;;;35.77;;
14698;SDS011;7439;50.804;4.602;2023-02-16T08:25:02;43.97;;;33.97;;
14698;SDS011;7439;50.804;4.602;2023-02-16T08:27:30;42.23;;;33.23;;
14698;SDS011;7439;50.804;4.602;2023-02-16T08:29:57;41.90;;;33.53;;
14698;SDS011;7439;50.804;4.602;2023-02-16T08:32:26;40.90;;;33.47;;
14698;SDS011;7439;50.804;4.602;2023-02-16T08:34:54;41.03;;;33.63;;
14698;SDS011;7439;50.804;4.602;2023-02-16T08:37:21;39.53;;;32.00;;
14698;SDS011;7439;50.804;4.602;2023-02-16T08:39:49;37.73;;;32.40;;
14698;SDS011;7439;50.804;4.602;2023-02-16T08:42:16;41.80;;;32.87;;
14698;SDS011;7439;50.804;4.602;2023-02-16T08:44:43;39.80;;;30.83;;
14698;SDS011;7439;50.804;4.602;2023-02-16T08:47:11;40.13;;;32.40;;
14698;SDS011;7439;50.804;4.602;2023-02-16T08:49:42;44.23;;;34.07;;
14698;SDS011;7439;50.804;4.602;2023-02-16T08:52:09;39.10;;;31.83;;
14698;SDS011;7439;50.804;4.602;2023-02-16T08:54:37;40.43;;;32.33;;
14698;SDS011;7439;50.804;4.602;2023-02-16T08:57:05;42.37;;;32.07;;
14698;SDS011;7439;50.804;4.602;2023-02-16T08:59:35;35.47;;;29.60;;
14698;SDS011;7439;50.804;4.602;2023-02-16T09:02:03;37.80;;;31.17;;
14698;SDS011;7439;50.804;4.602;2023-02-16T09:04:30;39.63;;;30.33;;
14698;SDS011;7439;50.804;4.602;2023-02-16T09:06:59;38.47;;;28.87;;
14698;SDS011;7439;50.804;4.602;2023-02-16T09:09:26;38.00;;;29.73;;
14698;SDS011;7439;50.804;4.602;2023-02-16T09:11:54;37.27;;;31.33;;
14698;SDS011;7439;50.804;4.602;2023-02-16T09:14:22;37.37;;;30.40;;
14698;SDS011;7439;50.804;4.602;2023-02-16T09:16:50;38.97;;;31.67;;
14698;SDS011;7439;50.804;4.602;2023-02-16T09:19:18;37.23;;;32.03;;
14698;SDS011;7439;50.804;4.602;2023-02-16T09:21:46;36.77;;;31.80;;
14698;SDS011;7439;50.804;4.602;2023-02-16T09:24:16;39.73;;;32.30;;
14698;SDS011;7439;50.804;4.602;2023-02-16T09:26:43;38.23;;;32.97;;
14698;SDS011;7439;50.804;4.602;2023-02-16T09:29:11;40.33;;;34.87;;
14698;SDS011;7439;50.804;4.602;2023-02-16T09:31:39;51.17;;;35.13;;
14698;SDS011;7439;50.804;4.602;2023-02-16T09:34:13;44.57;;;34.70;;
14698;SDS011;7439;50.804;4.602;2023-02-16T09:36:41;44.43;;;36.47;;
14698;SDS011;7439;50.804;4.602;2023-02-16T09:39:08;45.17;;;35.77;;
14698;SDS011;7439;50.804;4.602;2023-02-16T09:41:44;39.73;;;34.03;;
14698;SDS011;7439;50.804;4.602;2023-02-16T09:44:16;42.03;;;34.20;;
14698;SDS011;7439;50.804;4.602;2023-02-16T09:46:47;42.17;;;36.07;;
14698;SDS011;7439;50.804;4.602;2023-02-16T09:49:19;43.33;;;35.10;;
14698;SDS011;7439;50.804;4.602;2023-02-16T09:51:52;47.37;;;34.93;;
14698;SDS011;7439;50.804;4.602;2023-02-16T09:54:23;43.57;;;35.07;;
14698;SDS011;7439;50.804;4.602;2023-02-16T09:56:57;42.47;;;34.73;;
14698;SDS011;7439;50.804;4.602;2023-02-16T09:59:32;40.23;;;33.27;;
14698;SDS011;7439;50.804;4.602;2023-02-16T10:02:06;41.53;;;35.33;;
14698;SDS011;7439;50.804;4.602;2023-02-16T10:04:43;41.33;;;35.27;;
14698;SDS011;7439;50.804;4.602;2023-02-16T10:07:14;38.63;;;33.13;;
14698;SDS011;7439;50.804;4.602;2023-02-16T10:09:46;39.30;;;32.37;;
14698;SDS011;7439;50.804;4.602;2023-02-16T10:12:17;39.63;;;32.67;;
14698;SDS011;7439;50.804;4.602;2023-02-16T10:14:47;37.27;;;33.30;;
14698;SDS011;7439;50.804;4.602;2023-02-16T10:17:17;41.27;;;33.00;;
14698;SDS011;7439;50.804;4.602;2023-02-16T10:19:48;39.90;;;32.10;;
14698;SDS011;7439;50.804;4.602;2023-02-16T10:22:20;39.97;;;32.97;;
14698;SDS011;7439;50.804;4.602;2023-02-16T10:24:51;38.43;;;33.50;;
14698;SDS011;7439;50.804;4.602;2023-02-16T10:27:23;37.77;;;32.07;;
14698;SDS011;7439;50.804;4.602;2023-02-16T10:29:54;40.73;;;31.47;;
14698;SDS011;7439;50.804;4.602;2023-02-16T10:32:24;37.90;;;32.63;;
14698;SDS011;7439;50.804;4.602;2023-02-16T10:34:54;41.67;;;33.37;;
14698;SDS011;7439;50.804;4.602;2023-02-16T10:37:32;41.30;;;34.57;;
14698;SDS011;7439;50.804;4.602;2023-02-16T10:40:12;38.63;;;32.70;;
14698;SDS011;7439;50.804;4.602;2023-02-16T10:42:43;38.70;;;30.47;;
14698;SDS011;7439;50.804;4.602;2023-02-16T10:45:17;38.93;;;31.10;;
14698;SDS011;7439;50.804;4.602;2023-02-16T10:47:46;37.30;;;31.63;;
14698;SDS011;7439;50.804;4.602;2023-02-16T10:50:17;36.63;;;29.53;;
14698;SDS011;7439;50.804;4.602;2023-02-16T10:52:46;35.13;;;31.10;;
14698;SDS011;7439;50.804;4.602;2023-02-16T10:55:14;34.87;;;31.17;;
14698;SDS011;7439;50.804;4.602;2023-02-16T10:57:45;40.83;;;31.07;;
14698;SDS011;7439;50.804;4.602;2023-02-16T11:00:17;38.53;;;32.60;;
14698;SDS011;7439;50.804;4.602;2023-02-16T11:02:49;30.97;;;27.60;;
14698;SDS011;7439;50.804;4.602;2023-02-16T11:05:30;35.27;;;30.17;;
14698;SDS011;7439;50.804;4.602;2023-02-16T11:07:58;37.37;;;30.93;;
14698;SDS011;7439;50.804;4.602;2023-02-16T11:10:34;33.77;;;28.63;;
14698;SDS011;7439;50.804;4.602;2023-02-16T11:13:03;37.03;;;30.77;;
14698;SDS011;7439;50.804;4.602;2023-02-16T11:15:30;37.10;;;28.83;;
14698;SDS011;7439;50.804;4.602;2023-02-16T11:18:00;32.37;;;28.87;;
14698;SDS011;7439;50.804;4.602;2023-02-16T11:20:31;31.90;;;27.93;;
14698;SDS011;7439;50.804;4.602;2023-02-16T11:23:12;32.80;;;27.40;;
14698;SDS011;7439;50.804;4.602;2023-02-16T11:25:43;35.20;;;29.63;;
14698;SDS011;7439;50.804;4.602;2023-02-16T11:28:25;30.67;;;26.67;;
14698;SDS011;7439;50.804;4.602;2023-02-16T11:30:57;31.13;;;27.60;;
14698;SDS011;7439;50.804;4.602;2023-02-16T11:33:26;33.27;;;27.07;;
14698;SDS011;7439;50.804;4.602;2023-02-16T11:35:54;33.00;;;27.30;;
14698;SDS011;7439;50.804;4.602;2023-02-16T11:38:25;31.80;;;26.27;;
14698;SDS011;7439;50.804;4.602;2023-02-16T11:40:53;32.50;;;28.00;;
14698;SDS011;7439;50.804;4.602;2023-02-16T11:43:21;30.13;;;26.93;;
14698;SDS011;7439;50.804;4.602;2023-02-16T11:46:01;29.53;;;26.37;;
14698;SDS011;7439;50.804;4.602;2023-02-16T11:48:29;28.63;;;25.60;;
14698;SDS011;7439;50.804;4.602;2023-02-16T11:50:58;30.60;;;26.53;;
14698;SDS011;7439;50.804;4.602;2023-02-16T11:53:27;32.00;;;26.07;;
14698;SDS011;7439;50.804;4.602;2023-02-16T11:56:08;31.73;;;26.30;;
14698;SDS011;7439;50.804;4.602;2023-02-16T11:58:37;31.00;;;24.67;;
14698;SDS011;7439;50.804;4.602;2023-02-16T12:01:08;29.57;;;26.10;;
14698;SDS011;7439;50.804;4.602;2023-02-16T12:03:50;26.77;;;23.40;;
14698;SDS011;7439;50.804;4.602;2023-02-16T12:06:26;27.20;;;24.30;;
14698;SDS011;7439;50.804;4.602;2023-02-16T12:08:57;30.30;;;24.13;;
14698;SDS011;7439;50.804;4.602;2023-02-16T12:11:31;28.43;;;25.13;;
14698;SDS011;7439;50.804;4.602;2023-02-16T12:14:02;26.80;;;23.63;;
14698;SDS011;7439;50.804;4.602;2023-02-16T12:16:37;28.20;;;25.17;;
14698;SDS011;7439;50.804;4.602;2023-02-16T12:19:10;27.67;;;24.80;;
14698;SDS011;7439;50.804;4.602;2023-02-16T12:21:40;26.97;;;22.67;;
14698;SDS011;7439;50.804;4.602;2023-02-16T12:24:12;27.30;;;24.23;;
14698;SDS011;7439;50.804;4.602;2023-02-16T12:26:46;29.47;;;24.17;;
14698;SDS011;7439;50.804;4.602;2023-02-16T12:29:19;26.60;;;23.80;;
14698;SDS011;7439;50.804;4.602;2023-02-16T12:31:52;28.27;;;25.30;;
14698;SDS011;7439;50.804;4.602;2023-02-16T12:34:25;29.93;;;24.90;;
14698;SDS011;7439;50.804;4.602;2023-02-16T12:36:57;31.57;;;26.27;;
14698;SDS011;7439;50.804;4.602;2023-02-16T12:39:28;32.80;;;25.70;;
14698;SDS011;7439;50.804;4.602;2023-02-16T12:42:01;29.63;;;25.33;;
14698;SDS011;7439;50.804;4.602;2023-02-16T12:44:31;30.13;;;24.90;;
14698;SDS011;7439;50.804;4.602;2023-02-16T12:47:02;26.70;;;23.17;;
14698;SDS011;7439;50.804;4.602;2023-02-16T12:49:34;28.33;;;25.40;;
14698;SDS011;7439;50.804;4.602;2023-02-16T12:52:09;33.77;;;25.27;;
14698;SDS011;7439;50.804;4.602;2023-02-16T12:54:39;28.80;;;24.60;;
14698;SDS011;7439;50.804;4.602;2023-02-16T12:57:11;26.97;;;24.17;;
14698;SDS011;7439;50.804;4.602;2023-02-16T12:59:40;26.20;;;23.43;;
14698;SDS011;7439;50.804;4.602;2023-02-16T13:02:13;26.73;;;23.87;;
14698;SDS011;7439;50.804;4.602;2023-02-16T13:04:46;27.40;;;24.63;;
14698;SDS011;7439;50.804;4.602;2023-02-16T13:07:17;26.97;;;23.70;;
14698;SDS011;7439;50.804;4.602;2023-02-16T13:09:49;28.10;;;25.10;;
14698;SDS011;7439;50.804;4.602;2023-02-16T13:12:19;26.97;;;23.97;;
14698;SDS011;7439;50.804;4.602;2023-02-16T13:14:52;28.20;;;24.40;;
14698;SDS011;7439;50.804;4.602;2023-02-16T13:17:26;27.30;;;23.10;;
14698;SDS011;7439;50.804;4.602;2023-02-16T13:19:56;24.27;;;21.70;;
14698;SDS011;7439;50.804;4.602;2023-02-16T13:22:30;25.67;;;21.13;;
14698;SDS011;7439;50.804;4.602;2023-02-16T13:25:12;27.33;;;21.63;;
14698;SDS011;7439;50.804;4.602;2023-02-16T13:27:49;25.93;;;22.17;;
14698;SDS011;7439;50.804;4.602;2023-02-16T13:30:28;23.20;;;20.73;;
14698;SDS011;7439;50.804;4.602;2023-02-16T13:33:10;23.23;;;20.70;;
14698;SDS011;7439;50.804;4.602;2023-02-16T13:38:42;23.77;;;20.17;;
14698;SDS011;7439;50.804;4.602;2023-02-16T13:44:01;24.60;;;21.00;;
14698;SDS011;7439;50.804;4.602;2023-02-16T13:46:30;27.43;;;21.60;;
14698;SDS011;7439;50.804;4.602;2023-02-16T13:48:59;25.73;;;21.30;;
14698;SDS011;7439;50.804;4.602;2023-02-16T13:51:28;24.37;;;20.97;;
14698;SDS011;7439;50.804;4.602;2023-02-16T13:54:05;20.97;;;18.87;;
14698;SDS011;7439;50.804;4.602;2023-02-16T13:56:34;24.50;;;21.83;;
14698;SDS011;7439;50.804;4.602;2023-02-16T14:01:53;23.27;;;20.60;;
14698;SDS011;7439;50.804;4.602;2023-02-16T14:07:31;25.17;;;18.73;;
14698;SDS011;7439;50.804;4.602;2023-02-16T14:10:02;23.80;;;18.33;;
14698;SDS011;7439;50.804;4.602;2023-02-16T14:12:30;26.57;;;20.67;;
14698;SDS011;7439;50.804;4.602;2023-02-16T14:15:00;24.90;;;20.07;;
14698;SDS011;7439;50.804;4.602;2023-02-16T14:17:29;24.77;;;19.07;;
14698;SDS011;7439;50.804;4.602;2023-02-16T14:19:58;24.97;;;18.57;;
14698;SDS011;7439;50.804;4.602;2023-02-16T14:22:48;26.00;;;20.10;;
14698;SDS011;7439;50.804;4.602;2023-02-16T14:28:02;23.10;;;18.47;;
14698;SDS011;7439;50.804;4.602;2023-02-16T14:30:32;24.83;;;17.73;;
14698;SDS011;7439;50.804;4.602;2023-02-16T14:33:04;22.53;;;17.83;;
14698;SDS011;7439;50.804;4.602;2023-02-16T14:35:34;20.70;;;16.67;;
14698;SDS011;7439;50.804;4.602;2023-02-16T14:38:03;21.37;;;16.47;;
14698;SDS011;7439;50.804;4.602;2023-02-16T14:40:44;20.50;;;14.87;;
14698;SDS011;7439;50.804;4.602;2023-02-16T14:43:22;18.27;;;15.23;;
14698;SDS011;7439;50.804;4.602;2023-02-16T14:51:33;23.03;;;15.17;;
14698;SDS011;7439;50.804;4.602;2023-02-16T14:54:16;22.27;;;15.17;;
14698;SDS011;7439;50.804;4.602;2023-02-16T14:56:48;19.93;;;15.73;;
14698;SDS011;7439;50.804;4.602;2023-02-16T14:59:25;18.37;;;16.13;;
14698;SDS011;7439;50.804;4.602;2023-02-16T15:01:54;24.10;;;16.20;;
14698;SDS011;7439;50.804;4.602;2023-02-16T15:04:28;24.83;;;15.97;;
14698;SDS011;7439;50.804;4.602;2023-02-16T15:06:56;22.10;;;16.23;;
14698;SDS011;7439;50.804;4.602;2023-02-16T15:09:26;19.30;;;15.53;;
14698;SDS011;7439;50.804;4.602;2023-02-16T15:11:55;21.03;;;15.83;;
14698;SDS011;7439;50.804;4.602;2023-02-16T15:14:42;21.43;;;17.10;;